createdAt,value
2023-01-01T00:00:03.404Z,67.2
2023-01-01T00:03:03.570Z,67.2
2023-01-01T00:06:03.296Z,67.2
2023-01-01T00:09:03.343Z,67.2
2023-01-01T00:12:03.285Z,67.2
2023-01-01T00:15:03.319Z,67.2
2023-01-01T00:18:03.307Z,67.2
2023-01-01T00:21:03.388Z,67.2
2023-01-01T00:24:03.301Z,67.2
2023-01-01T00:27:03.282Z,67.2
2023-01-01T00:30:03.553Z,66.9
2023-01-01T00:33:03.727Z,66.9
2023-01-01T00:36:03.400Z,66.9
2023-01-01T00:39:03.283Z,66.9
2023-01-01T00:42:03.269Z,66.9
2023-01-01T00:45:03.440Z,66.9
2023-01-01T00:48:03.302Z,66.9
2023-01-01T00:51:03.268Z,66.9
2023-01-01T00:54:03.454Z,66.9
2023-01-01T00:57:03.238Z,66.9
2023-01-01T01:00:03.344Z,66.9
2023-01-01T01:03:03.836Z,66.9
2023-01-01T01:06:04.203Z,66.9
2023-01-01T01:09:03.376Z,66.9
2023-01-01T01:12:21.447Z,66.9
2023-01-01T01:15:03.341Z,65.7
2023-01-01T01:18:03.240Z,65.7
2023-01-01T01:21:03.463Z,65.7
2023-01-01T01:24:03.367Z,65.6
2023-01-01T01:27:03.287Z,65.6
2023-01-01T01:30:05.532Z,65.9
2023-01-01T01:33:03.341Z,65.9
2023-01-01T01:36:03.355Z,65.9
2023-01-01T01:39:03.351Z,65.9
2023-01-01T01:42:03.338Z,65.9
2023-01-01T01:45:03.459Z,65.9
2023-01-01T01:48:03.350Z,65.9
2023-01-01T01:51:03.413Z,65.9
2023-01-01T01:54:05.112Z,65.9
2023-01-01T01:57:03.328Z,65.7
2023-01-01T02:00:13.215Z,65.7
2023-01-01T02:03:03.420Z,65.7
2023-01-01T02:06:03.306Z,66
2023-01-01T02:09:03.315Z,65.5
2023-01-01T02:12:03.472Z,65.5
2023-01-01T02:15:03.334Z,65.5
2023-01-01T02:18:03.427Z,65.5
2023-01-01T02:21:03.407Z,65.5
2023-01-01T02:24:03.340Z,65.5
2023-01-01T02:27:03.419Z,65.5
2023-01-01T02:30:03.522Z,65.1
2023-01-01T02:33:03.345Z,65.1
2023-01-01T02:36:07.344Z,65.1
2023-01-01T02:39:03.306Z,65.1
2023-01-01T02:42:03.359Z,65.1
2023-01-01T02:45:03.361Z,64.6
2023-01-01T02:48:03.751Z,64.6
2023-01-01T02:51:03.377Z,64.6
2023-01-01T02:54:03.277Z,64.6
2023-01-01T02:57:03.421Z,64.6
2023-01-01T03:00:03.385Z,64.6
2023-01-01T03:03:03.792Z,64.6
2023-01-01T03:06:03.250Z,64.6
2023-01-01T03:09:03.306Z,64.6
2023-01-01T03:12:03.322Z,64.6
2023-01-01T03:15:03.426Z,64.6
2023-01-01T03:18:03.541Z,64.6
2023-01-01T03:21:03.443Z,65.1
2023-01-01T03:24:03.271Z,65.1
2023-01-01T03:27:03.250Z,65.1
2023-01-01T03:30:03.353Z,65.1
2023-01-01T03:33:03.334Z,65.1
2023-01-01T03:36:03.248Z,65.1
2023-01-01T03:39:03.252Z,65.1
2023-01-01T03:42:03.285Z,65.1
2023-01-01T03:45:03.299Z,65.1
2023-01-01T03:48:03.296Z,65.1
2023-01-01T03:51:03.317Z,65.1
2023-01-01T03:54:03.302Z,63.9
2023-01-01T03:57:03.246Z,63.9
2023-01-01T04:00:03.300Z,63.9
2023-01-01T04:03:03.445Z,63.9
2023-01-01T04:06:03.272Z,63.9
2023-01-01T04:09:03.241Z,63.9
2023-01-01T04:12:03.285Z,63.9
2023-01-01T04:15:03.315Z,63.3
2023-01-01T04:18:03.314Z,63.3
2023-01-01T04:21:03.262Z,63.3
2023-01-01T04:24:03.287Z,63.3
2023-01-01T04:27:03.925Z,63.3
2023-01-01T04:30:03.358Z,63.3
2023-01-01T04:33:03.223Z,63.3
2023-01-01T04:36:03.259Z,63.3
2023-01-01T04:39:03.277Z,63.3
2023-01-01T04:42:03.307Z,63.3
2023-01-01T04:45:03.413Z,63.3
2023-01-01T04:48:03.289Z,63.3
2023-01-01T04:51:03.239Z,63.3
2023-01-01T04:54:03.398Z,63.2
2023-01-01T04:57:03.208Z,63.2
2023-01-01T05:00:03.430Z,63.2
2023-01-01T05:03:03.371Z,63.2
2023-01-01T05:06:03.354Z,63.2
2023-01-01T05:09:03.315Z,63.2
2023-01-01T05:12:03.420Z,63.2
2023-01-01T05:15:03.280Z,63.7
2023-01-01T05:18:03.264Z,63.7
2023-01-01T05:21:03.276Z,63.7
2023-01-01T05:24:03.310Z,63.7
2023-01-01T05:27:03.302Z,63.7
2023-01-01T05:30:03.391Z,63.7
2023-01-01T05:33:03.265Z,64.2
2023-01-01T05:36:03.412Z,64.2
2023-01-01T05:39:03.271Z,64.2
2023-01-01T05:42:03.277Z,64.6
2023-01-01T05:45:03.581Z,64.6
2023-01-01T05:48:03.365Z,64.6
2023-01-01T05:51:03.287Z,64.6
2023-01-01T05:54:03.381Z,64.6
2023-01-01T05:57:03.395Z,64.6
2023-01-01T06:00:03.278Z,64.6
2023-01-01T06:03:03.304Z,64.6
2023-01-01T06:06:03.353Z,64.6
2023-01-01T06:09:03.391Z,64.8
2023-01-01T06:12:03.379Z,64.8
2023-01-01T06:15:03.258Z,64.8
2023-01-01T06:18:03.362Z,64.8
2023-01-01T06:21:03.264Z,64.8
2023-01-01T06:24:03.475Z,64.8
2023-01-01T06:27:03.383Z,64.8
2023-01-01T06:30:03.594Z,65.2
2023-01-01T06:33:03.329Z,65.2
2023-01-01T06:36:03.280Z,65.2
2023-01-01T06:39:03.260Z,65.2
2023-01-01T06:42:03.428Z,65.3
2023-01-01T06:45:03.358Z,65.3
2023-01-01T06:48:03.268Z,66.3
2023-01-01T06:51:03.313Z,66.3
2023-01-01T06:54:03.370Z,66.3
2023-01-01T06:57:03.432Z,66.3
2023-01-01T07:00:03.376Z,66.1
2023-01-01T07:03:03.896Z,66.1
2023-01-01T07:06:03.217Z,66.2
2023-01-01T07:09:03.440Z,66.2
2023-01-01T07:12:03.280Z,66.2
2023-01-01T07:15:03.435Z,66.2
2023-01-01T07:18:03.347Z,66.2
2023-01-01T07:21:03.271Z,66.2
2023-01-01T07:24:03.399Z,66.2
2023-01-01T07:27:03.321Z,66.2
2023-01-01T07:30:03.555Z,66.2
2023-01-01T07:33:03.351Z,66.8
2023-01-01T07:36:03.362Z,66.8
2023-01-01T07:39:03.512Z,66.8
2023-01-01T07:42:13.018Z,66.8
2023-01-01T07:45:03.456Z,66.8
2023-01-01T07:48:03.562Z,66.8
2023-01-01T07:51:03.332Z,66.8
2023-01-01T07:54:09.898Z,67.6
2023-01-01T07:57:03.294Z,67.6
2023-01-01T08:00:03.489Z,67.6
2023-01-01T08:03:03.733Z,67.5
2023-01-01T08:06:03.329Z,67.5
2023-01-01T08:09:03.279Z,67.5
2023-01-01T08:12:03.360Z,67.5
2023-01-01T08:15:03.425Z,68
2023-01-01T08:18:03.432Z,68
2023-01-01T08:21:03.424Z,68
2023-01-01T08:24:03.382Z,68
2023-01-01T08:27:03.292Z,68
2023-01-01T08:30:03.593Z,68
2023-01-01T08:33:03.356Z,68.6
2023-01-01T08:36:03.335Z,68.6
2023-01-01T08:39:03.414Z,68.6
2023-01-01T08:42:07.066Z,68.9
2023-01-01T08:45:03.627Z,68.9
2023-01-01T08:48:03.299Z,68.9
2023-01-01T08:51:03.509Z,69
2023-01-01T08:54:03.362Z,69
2023-01-01T08:57:03.355Z,69
2023-01-01T09:00:03.648Z,69
2023-01-01T09:03:03.841Z,69
2023-01-01T09:06:03.415Z,69
2023-01-01T09:09:03.553Z,69
2023-01-01T09:12:03.409Z,69
2023-01-01T09:15:03.428Z,69
2023-01-01T09:18:03.404Z,69.3
2023-01-01T09:21:03.314Z,69.3
2023-01-01T09:24:03.334Z,69.3
2023-01-01T09:27:03.402Z,69.2
2023-01-01T09:30:03.621Z,69.2
2023-01-01T09:33:03.295Z,69.2
2023-01-01T09:36:03.263Z,69.6
2023-01-01T09:39:03.466Z,69.6
2023-01-01T09:42:03.312Z,69.6
2023-01-01T09:45:03.331Z,69.6
2023-01-01T09:48:03.339Z,69.9
2023-01-01T09:51:03.309Z,69.9
2023-01-01T09:54:03.465Z,69.9
2023-01-01T09:57:03.341Z,69.9
2023-01-01T10:00:03.620Z,69.9
2023-01-01T10:03:03.283Z,70
2023-01-01T10:06:03.334Z,70
2023-01-01T10:09:03.871Z,70
2023-01-01T10:12:03.429Z,70
2023-01-01T10:15:03.680Z,69.4
2023-01-01T10:18:03.305Z,69.4
2023-01-01T10:21:03.283Z,69.4
2023-01-01T10:24:03.393Z,69.4
2023-01-01T10:27:03.283Z,69.4
2023-01-01T10:30:07.489Z,69.4
2023-01-01T10:33:03.481Z,69.4
2023-01-01T10:36:03.327Z,69.4
2023-01-01T10:39:03.263Z,69
2023-01-01T10:42:03.492Z,69
2023-01-01T10:45:03.430Z,69
2023-01-01T10:48:03.344Z,68.7
2023-01-01T10:51:03.336Z,68.7
2023-01-01T10:54:03.418Z,68.7
2023-01-01T10:57:03.249Z,68.7
2023-01-01T11:00:03.379Z,68.7
2023-01-01T11:03:03.564Z,68.7
2023-01-01T11:06:03.397Z,68.7
2023-01-01T11:09:03.423Z,68.7
2023-01-01T11:12:46.399Z,68.7
2023-01-01T11:15:03.614Z,68.7
2023-01-01T11:18:03.360Z,68.7
2023-01-01T11:21:03.379Z,68.6
2023-01-01T11:24:03.407Z,68.6
2023-01-01T11:27:03.349Z,68.6
2023-01-01T11:30:03.452Z,68.6
2023-01-01T11:33:03.424Z,68.6
2023-01-01T11:36:03.322Z,68.6
2023-01-01T11:39:03.398Z,68.6
2023-01-01T11:42:03.503Z,68.6
2023-01-01T11:45:03.353Z,68.6
2023-01-01T11:48:03.461Z,68.4
2023-01-01T11:51:03.283Z,68.4
2023-01-01T11:54:03.500Z,68.4
2023-01-01T11:57:03.432Z,68.4
2023-01-01T12:00:03.602Z,68.8
2023-01-01T12:03:03.469Z,68.8
2023-01-01T12:06:03.358Z,68.8
2023-01-01T12:09:03.461Z,68.8
2023-01-01T12:12:03.445Z,68.8
2023-01-01T12:15:03.375Z,68.8
2023-01-01T12:18:03.403Z,73.5
2023-01-01T12:21:03.352Z,73.5
2023-01-01T12:24:03.299Z,73.5
2023-01-01T12:27:13.181Z,73.5
2023-01-01T12:30:03.488Z,74.4
2023-01-01T12:33:10.820Z,74.4
2023-01-01T12:36:03.367Z,74.4
2023-01-01T12:39:03.327Z,74.4
2023-01-01T12:42:03.363Z,75.1
2023-01-01T12:45:03.351Z,75.1
2023-01-01T12:48:03.377Z,75.4
2023-01-01T12:51:08.103Z,75.4
2023-01-01T12:54:03.362Z,75.4
2023-01-01T12:57:03.315Z,75.4
2023-01-01T13:00:03.479Z,75.4
2023-01-01T13:03:03.716Z,75.4
2023-01-01T13:06:03.436Z,75.4
2023-01-01T13:09:03.322Z,75.4
2023-01-01T13:12:03.379Z,75.4
2023-01-01T13:15:03.399Z,75.4
2023-01-01T13:18:03.419Z,75.4
2023-01-01T13:21:03.255Z,75.4
2023-01-01T13:24:03.309Z,75.4
2023-01-01T13:27:12.892Z,75.4
2023-01-01T13:30:03.473Z,75.4
2023-01-01T13:33:03.334Z,75.4
2023-01-01T13:36:03.360Z,75.4
2023-01-01T13:39:03.417Z,75.4
2023-01-01T13:42:03.335Z,75.4
2023-01-01T13:45:03.343Z,75.4
2023-01-01T13:48:03.347Z,77.3
2023-01-01T13:51:03.396Z,77.3
2023-01-01T13:54:03.458Z,77.3
2023-01-01T13:57:03.349Z,77.7
2023-01-01T14:00:03.637Z,77.7
2023-01-01T14:03:03.718Z,77.7
2023-01-01T14:06:03.391Z,77.7
2023-01-01T14:09:03.336Z,77.7
2023-01-01T14:12:03.329Z,77.7
2023-01-01T14:15:03.373Z,77.7
2023-01-01T14:18:03.463Z,77.7
2023-01-01T14:21:03.376Z,77.7
2023-01-01T14:24:03.633Z,77.7
2023-01-01T14:27:03.402Z,77.7
2023-01-01T14:30:03.408Z,77.7
2023-01-01T14:33:03.418Z,78.4
2023-01-01T14:36:03.301Z,78.4
2023-01-01T14:39:03.419Z,78.4
2023-01-01T14:42:03.457Z,78.4
2023-01-01T14:45:03.438Z,78.4
2023-01-01T14:48:03.361Z,75.2
2023-01-01T14:51:03.411Z,75.2
2023-01-01T14:54:03.400Z,75.2
2023-01-01T14:57:03.512Z,75.2
2023-01-01T15:00:03.483Z,75.2
2023-01-01T15:03:03.700Z,75.2
2023-01-01T15:06:03.377Z,75.2
2023-01-01T15:09:03.335Z,75.2
2023-01-01T15:12:03.617Z,75.2
2023-01-01T15:15:03.282Z,75.2
2023-01-01T15:18:03.346Z,75.2
2023-01-01T15:21:03.251Z,75.2
2023-01-01T15:24:03.230Z,75.2
2023-01-01T15:27:03.330Z,75.2
2023-01-01T15:30:05.910Z,75.2
2023-01-01T15:33:03.298Z,75.2
2023-01-01T15:36:03.338Z,74.2
2023-01-01T15:39:03.278Z,74.2
2023-01-01T15:42:03.373Z,74.2
2023-01-01T15:45:03.331Z,74.2
2023-01-01T15:48:03.311Z,74.2
2023-01-01T15:51:03.362Z,74.2
2023-01-01T15:54:03.296Z,74.2
2023-01-01T15:57:03.492Z,74.5
2023-01-01T16:00:03.408Z,74.5
2023-01-01T16:03:03.438Z,74.5
2023-01-01T16:06:03.300Z,74.5
2023-01-01T16:09:03.416Z,74.5
2023-01-01T16:12:03.529Z,74.5
2023-01-01T16:15:03.261Z,74.5
2023-01-01T16:18:03.373Z,74.5
2023-01-01T16:21:03.322Z,74.5
2023-01-01T16:24:03.306Z,74.5
2023-01-01T16:27:03.300Z,74.5
2023-01-01T16:30:03.407Z,74.9
2023-01-01T16:33:03.273Z,74.9
2023-01-01T16:36:03.270Z,74.9
2023-01-01T16:39:03.344Z,74.9
2023-01-01T16:42:03.265Z,74.9
2023-01-01T16:45:03.276Z,74.9
2023-01-01T16:48:03.215Z,74.9
2023-01-01T16:51:03.321Z,74.9
2023-01-01T16:54:03.464Z,74.9
2023-01-01T16:57:03.257Z,74.9
2023-01-01T17:00:03.429Z,74.9
2023-01-01T17:03:03.450Z,74.9
2023-01-01T17:06:03.280Z,74.9
2023-01-01T17:09:03.240Z,74.9
2023-01-01T17:12:03.437Z,74.9
2023-01-01T17:15:03.332Z,74.9
2023-01-01T17:18:03.303Z,74.9
2023-01-01T17:21:03.252Z,74.9
2023-01-01T17:24:03.225Z,74.9
2023-01-01T17:27:03.316Z,74.9
2023-01-01T17:30:03.457Z,76.3
2023-01-01T17:33:03.272Z,76.5
2023-01-01T17:36:03.304Z,76.5
2023-01-01T17:39:03.283Z,76.5
2023-01-01T17:42:03.337Z,76.5
2023-01-01T17:45:03.400Z,76.5
2023-01-01T17:48:03.309Z,76.5
2023-01-01T17:51:03.285Z,76.5
2023-01-01T17:54:03.362Z,76.5
2023-01-01T17:57:03.270Z,76.5
2023-01-01T18:00:03.375Z,76.5
2023-01-01T18:03:03.677Z,76.5
2023-01-01T18:06:03.967Z,76.4
2023-01-01T18:09:03.330Z,76.4
2023-01-01T18:12:03.309Z,76.4
2023-01-01T18:15:03.348Z,76.4
2023-01-01T18:18:03.316Z,76.4
2023-01-01T18:21:03.333Z,76.4
2023-01-01T18:24:03.308Z,76.4
2023-01-01T18:27:03.266Z,76.1
2023-01-01T18:30:03.493Z,76.1
2023-01-01T18:33:03.226Z,76.1
2023-01-01T18:36:03.319Z,76.1
2023-01-01T18:39:03.259Z,76.1
2023-01-01T18:42:03.302Z,76.1
2023-01-01T18:45:03.221Z,76.1
2023-01-01T18:48:03.429Z,76.1
2023-01-01T18:51:03.230Z,76.1
2023-01-01T18:54:03.299Z,76.1
2023-01-01T18:57:03.293Z,76.2
2023-01-01T19:00:03.371Z,76.2
2023-01-01T19:03:03.436Z,76.2
2023-01-01T19:06:03.340Z,76.2
2023-01-01T19:09:03.277Z,76.2
2023-01-01T19:12:03.260Z,76.2
2023-01-01T19:15:03.253Z,76.2
2023-01-01T19:18:03.428Z,75.7
2023-01-01T19:21:03.285Z,75.7
2023-01-01T19:24:03.257Z,75.7
2023-01-01T19:27:03.283Z,76.1
2023-01-01T19:30:03.243Z,76.1
2023-01-01T19:33:03.389Z,76.1
2023-01-01T19:36:03.275Z,76.1
2023-01-01T19:39:03.224Z,76.1
2023-01-01T19:42:03.242Z,76.1
2023-01-01T19:45:03.268Z,76.1
2023-01-01T19:48:03.259Z,76.1
2023-01-01T19:51:03.316Z,76.1
2023-01-01T19:54:03.343Z,76.1
2023-01-01T19:57:03.281Z,76.1
2023-01-01T20:00:03.377Z,76.1
2023-01-01T20:03:57.268Z,76.1
2023-01-01T20:06:03.295Z,76.1
2023-01-01T20:09:03.282Z,76.1
2023-01-01T20:12:03.249Z,76.1
2023-01-01T20:15:03.339Z,78.4
2023-01-01T20:18:03.214Z,78.5
2023-01-01T20:21:03.274Z,78.5
2023-01-01T20:24:03.266Z,78.5
2023-01-01T20:27:03.376Z,78.5
2023-01-01T20:30:03.313Z,78.5
2023-01-01T20:33:03.323Z,78.5
2023-01-01T20:36:03.391Z,78.5
2023-01-01T20:39:03.450Z,78.5
2023-01-01T20:42:03.289Z,78.5
2023-01-01T20:45:03.290Z,78.5
2023-01-01T20:48:03.293Z,78.5
2023-01-01T20:51:03.281Z,78.5
2023-01-01T20:54:03.331Z,78.5
2023-01-01T20:57:03.314Z,78.5
2023-01-01T21:00:03.508Z,78.5
2023-01-01T21:03:03.566Z,78.5
2023-01-01T21:06:03.455Z,78.5
2023-01-01T21:09:03.286Z,78.5
2023-01-01T21:12:03.305Z,81.1
2023-01-01T21:15:03.254Z,81.1
2023-01-01T21:18:03.240Z,81.1
2023-01-01T21:21:03.328Z,81.1
2023-01-01T21:24:03.293Z,81.1
2023-01-01T21:27:03.313Z,81.1
2023-01-01T21:30:03.359Z,81.1
2023-01-01T21:33:03.297Z,81.7
2023-01-01T21:36:03.282Z,81.7
2023-01-01T21:39:03.245Z,81.7
2023-01-01T21:42:03.237Z,81.7
2023-01-01T21:45:03.431Z,81.8
2023-01-01T21:48:03.276Z,81.8
2023-01-01T21:51:03.268Z,81.8
2023-01-01T21:54:03.259Z,81.8
2023-01-01T21:57:03.346Z,81.8
2023-01-01T22:00:03.331Z,82.4
2023-01-01T22:03:03.366Z,82.5
2023-01-01T22:06:03.298Z,82.5
2023-01-01T22:09:03.370Z,82.5
2023-01-01T22:12:03.385Z,82.5
2023-01-01T22:15:03.270Z,82.8
2023-01-01T22:18:03.283Z,82.8
2023-01-01T22:21:03.441Z,82.8
2023-01-01T22:24:03.272Z,82.8
2023-01-01T22:27:03.269Z,82.8
2023-01-01T22:30:03.293Z,82.8
2023-01-01T22:33:03.206Z,82.8
2023-01-01T22:36:03.650Z,82.8
2023-01-01T22:39:03.317Z,82.8
2023-01-01T22:42:03.277Z,82.8
2023-01-01T22:45:03.261Z,82.8
2023-01-01T22:48:03.246Z,82.8
2023-01-01T22:51:03.240Z,82.8
2023-01-01T22:54:03.194Z,82.8
2023-01-01T22:57:03.265Z,83.2
2023-01-01T23:00:04.315Z,83.2
2023-01-01T23:03:03.565Z,83.2
2023-01-01T23:06:03.231Z,83.2
2023-01-01T23:09:03.214Z,83.2
2023-01-01T23:12:03.193Z,83.2
2023-01-01T23:15:03.189Z,83.2
2023-01-01T23:18:03.218Z,83.2
2023-01-01T23:21:03.248Z,83.4
2023-01-01T23:24:03.189Z,83.4
2023-01-01T23:27:03.155Z,83.4
2023-01-01T23:30:03.194Z,83.4
2023-01-01T23:33:03.212Z,83.4
2023-01-01T23:36:03.193Z,83.4
2023-01-01T23:39:03.236Z,83.4
2023-01-01T23:42:03.207Z,83.4
2023-01-01T23:45:03.254Z,83.4
2023-01-01T23:48:03.184Z,83.1
2023-01-01T23:51:03.236Z,83.1
2023-01-01T23:54:03.205Z,83.1
2023-01-01T23:57:03.199Z,83.1
